Time;durP1;ratioP1;P1;durP2;ratioP2;P2;SDS_P1;SDS_P2;PMS_P1;PMS_P2;Temp;Humidity;BMP_temperature;BMP_pressure;BME280_temperature;BME280_humidity;BME280_pressure;Samples;Min_cycle;Max_cycle;Signal;HPM_P1;HPM_P2
2022/07/19 10:20:46;;;;;;;12.00;2.50;;;;;;;-148.56;100.00;61375.16;4970463;28;20037;-62
2022/07/19 10:24:10;;;;;;;9.52;3.58;;;;;;;-148.56;100.00;61375.16;4973600;28;21702;-61
2022/07/19 10:27:36;;;;;;;7.20;2.47;;;;;;;-148.56;100.00;61375.16;4989968;28;20034;-62
2022/07/19 10:31:28;;;;;;;5.80;2.40;;;;;;;-148.56;100.00;61375.16;4970081;28;20148;-60
2022/07/19 10:35:16;;;;;;;5.07;2.35;;;;;;;-148.56;100.00;61375.16;4887590;29;20063;-61
2022/07/19 10:38:49;;;;;;;15.18;2.58;;;;;;;-148.56;100.00;61375.16;4756835;29;20054;-62
2022/07/19 10:42:23;;;;;;;5.32;2.30;;;;;;;-148.56;100.00;61375.16;4732831;29;20076;-59
2022/07/19 10:45:56;;;;;;;4.63;2.20;;;;;;;-148.56;100.00;61375.16;4712255;30;20040;-58
2022/07/19 10:49:45;;;;;;;6.75;2.25;;;;;;;-148.56;100.00;61375.16;4666394;30;21033;-57
2022/07/19 10:53:42;;;;;;;6.05;2.17;;;;;;;-148.56;100.00;61375.16;4677638;30;20052;-59
2022/07/19 10:57:15;;;;;;;12.68;2.30;;;;;;;-148.56;100.00;61375.16;4672038;30;20055;-59
2022/07/19 11:00:43;;;;;;;5.43;2.20;;;;;;;-148.56;100.00;61375.16;4698007;30;20040;-60
2022/07/19 11:04:23;;;;;;;4.07;2.38;;;;;;;-148.56;100.00;61375.16;4688538;30;20991;-60
2022/07/19 11:07:48;;;;;;;5.65;2.25;;;;;;;-148.56;100.00;61375.16;4683315;30;20037;-60
2022/07/19 11:11:56;;;;;;;4.65;2.20;;;;;;;30.39;25.98;96871.09;4948106;28;20495;-27
2022/07/19 11:14:22;;;;;;;9.90;1.85;;;;;;;30.55;26.08;96859.44;4940250;28;20029;-26
2022/07/19 11:16:47;;;;;;;6.60;2.33;;;;;;;30.68;25.30;96865.53;4945631;28;20034;-29
2022/07/19 11:19:13;;;;;;;4.30;2.33;;;;;;;30.83;25.30;96860.94;4932506;28;20152;-32
2022/07/19 11:21:41;;;;;;;9.80;2.30;;;;;;;30.95;25.18;96856.56;4949062;28;20034;-27
2022/07/19 11:24:07;;;;;;;7.40;2.00;;;;;;;31.07;24.99;96862.72;4940489;28;20440;-26
2022/07/19 11:26:37;;;;;;;4.18;2.40;;;;;;;31.15;24.30;96851.56;4950167;28;20065;-30
2022/07/19 11:29:03;;;;;;;6.38;2.60;;;;;;;31.23;24.65;96849.19;4951109;28;20026;-27
2022/07/19 11:31:28;;;;;;;3.40;1.90;;;;;;;31.29;24.53;96843.41;4950485;28;20571;-32
2022/07/19 11:33:57;;;;;;;3.97;1.88;;;;;;;31.35;24.28;96842.16;4950338;28;20591;-31
2022/07/19 11:36:23;;;;;;;5.07;2.03;;;;;;;31.40;24.41;96834.69;4947741;28;20748;-29
2022/07/19 11:38:50;;;;;;;5.85;2.63;;;;;;;31.45;24.27;96841.44;4951463;28;20056;-31
2022/07/19 11:41:24;;;;;;;3.78;2.30;;;;;;;31.49;24.39;96825.22;4957926;28;22626;-29
2022/07/19 11:43:52;;;;;;;6.70;2.15;;;;;;;31.54;24.66;96825.72;4942509;28;20032;-32
2022/07/19 11:46:19;;;;;;;6.35;2.40;;;;;;;31.58;24.28;96830.78;4946944;28;20030;-26
2022/07/19 11:48:45;;;;;;;7.03;2.20;;;;;;;31.63;24.27;96828.63;4945078;28;20263;-29
2022/07/19 11:51:10;;;;;;;5.90;2.15;;;;;;;31.67;24.40;96824.78;4956838;28;20050;-27
2022/07/19 11:53:39;;;;;;;9.43;2.30;;;;;;;31.68;23.92;96826.44;4946177;28;20133;-30
2022/07/19 11:56:05;;;;;;;3.10;1.85;;;;;;;31.72;24.51;96819.97;4949719;28;20061;-29
2022/07/19 11:58:31;;;;;;;5.90;2.20;;;;;;;31.74;24.16;96815.38;4951754;28;20213;-29
2022/07/19 12:01:01;;;;;;;3.05;1.95;;;;;;;31.79;24.07;96829.13;4942769;28;20029;-31
2022/07/19 12:03:27;;;;;;;9.85;2.22;;;;;;;31.84;24.05;96819.97;4954671;28;20072;-26
2022/07/19 12:06:03;;;;;;;9.40;1.90;;;;;;;31.83;24.26;96808.53;4955526;28;20026;-25
2022/07/19 12:08:40;;;;;;;4.40;1.83;;;;;;;31.88;24.34;96821.44;4935439;28;20029;-33
2022/07/19 12:11:48;;;;;;;10.40;2.22;;;;;;;31.88;24.85;96816.97;4921796;28;20092;-30
2022/07/19 12:14:20;;;;;;;2.80;2.10;;;;;;;31.92;24.39;96804.31;4912919;28;20153;-25
2022/07/19 12:16:47;;;;;;;13.52;2.40;;;;;;;31.92;24.57;96807.84;4951373;28;20048;-29
2022/07/19 12:19:14;;;;;;;2.72;1.80;;;;;;;31.93;24.29;96811.34;4950395;28;20050;-26
2022/07/19 12:21:43;;;;;;;6.00;2.30;;;;;;;31.91;24.22;96800.84;4949240;28;20030;-29
2022/07/19 12:24:14;;;;;;;3.38;2.05;;;;;;;31.90;24.49;96806.28;4937702;28;20145;-30
2022/07/19 12:26:55;;;;;;;6.80;3.05;;;;;;;31.87;23.97;96798.53;4943863;28;20066;-25
2022/07/19 12:29:21;;;;;;;5.32;1.98;;;;;;;31.83;24.12;96803.22;4938247;28;20052;-29
2022/07/19 12:31:47;;;;;;;4.53;2.03;;;;;;;31.79;24.15;96786.72;4941759;28;20038;-32
2022/07/19 12:34:16;;;;;;;6.60;2.42;;;;;;;31.74;24.30;96783.56;4935584;28;20038;-29
2022/07/19 12:36:41;;;;;;;3.42;2.30;;;;;;;31.70;24.33;96791.91;4939437;28;20034;-28
2022/07/19 12:39:16;;;;;;;4.32;2.00;;;;;;;31.63;24.50;96788.88;4942020;28;20092;-31
2022/07/19 12:41:55;;;;;;;7.15;2.05;;;;;;;31.59;24.49;96790.09;4942935;28;20761;-32
2022/07/19 12:44:20;;;;;;;5.78;2.20;;;;;;;31.53;24.47;96786.94;4940978;28;20547;-29
2022/07/19 12:46:46;;;;;;;2.95;2.10;;;;;;;31.49;24.91;96780.22;4934265;28;20073;-31
2022/07/19 12:49:11;;;;;;;6.68;2.10;;;;;;;31.42;25.05;96779.84;4938825;28;20026;-30
2022/07/19 12:51:42;;;;;;;5.15;2.58;;;;;;;31.35;25.15;96765.38;4934951;28;20566;-26
2022/07/19 12:54:07;;;;;;;5.90;2.20;;;;;;;31.37;25.17;96786.44;4938718;28;20042;-28
2022/07/19 12:56:33;;;;;;;12.73;2.40;;;;;;;31.31;25.09;96776.34;4946438;28;20022;-31
2022/07/19 13:01:42;;;;;;;4.60;2.10;;;;;;;31.24;25.16;96779.41;4934576;28;20145;-31
2022/07/19 13:04:08;;;;;;;10.05;2.25;;;;;;;31.21;25.47;96770.84;4940107;28;21052;-27
2022/07/19 13:06:33;;;;;;;6.50;2.22;;;;;;;31.16;25.20;96763.25;4943714;28;20038;-31
2022/07/19 13:08:58;;;;;;;7.32;1.90;;;;;;;31.14;25.12;96770.47;4943109;28;20064;-30
2022/07/19 13:11:26;;;;;;;5.13;2.17;;;;;;;31.12;25.38;96767.13;4943661;28;20634;-33
2022/07/19 13:13:52;;;;;;;10.95;2.47;;;;;;;31.09;25.27;96762.03;4943487;28;20066;-29
2022/07/19 13:16:17;;;;;;;5.47;2.10;;;;;;;31.06;25.78;96755.19;4943913;28;20034;-32
2022/07/19 13:18:43;;;;;;;6.15;1.88;;;;;;;31.03;25.84;96758.91;4946603;28;20085;-30
2022/07/19 13:21:08;;;;;;;4.80;2.10;;;;;;;31.01;25.60;96755.53;4946529;28;20035;-31
2022/07/19 13:23:33;;;;;;;5.78;2.50;;;;;;;30.98;25.98;96760.22;4943470;28;20041;-32
2022/07/19 13:25:59;;;;;;;3.72;1.90;;;;;;;30.95;25.63;96756.00;4944848;28;20057;-29
2022/07/19 13:28:24;;;;;;;5.68;1.92;;;;;;;30.94;25.97;96749.03;4941115;28;20558;-29
2022/07/19 13:30:50;;;;;;;7.97;2.25;;;;;;;30.92;25.70;96734.19;4936082;28;20028;-29
2022/07/19 13:33:15;;;;;;;4.50;2.30;;;;;;;30.88;25.89;96737.09;4931727;28;21567;-35
2022/07/19 13:35:40;;;;;;;5.57;2.25;;;;;;;30.88;26.05;96738.88;4941207;28;20967;-31
2022/07/19 13:38:06;;;;;;;4.53;2.38;;;;;;;30.86;26.12;96730.22;4941194;28;20090;-31
2022/07/19 13:40:31;;;;;;;5.25;1.90;;;;;;;30.84;26.35;96727.69;4946566;28;20035;-29
2022/07/19 13:42:57;;;;;;;4.07;2.17;;;;;;;30.83;26.27;96730.47;4940113;28;21111;-29
2022/07/19 13:45:22;;;;;;;3.08;1.83;;;;;;;30.82;26.07;96734.06;4936214;28;20033;-34
2022/07/19 13:47:47;;;;;;;4.82;1.77;;;;;;;30.80;26.36;96725.38;4941754;28;20813;-30
2022/07/19 13:50:13;;;;;;;3.70;1.77;;;;;;;30.80;26.32;96725.38;4941112;28;20035;-32
2022/07/19 13:52:38;;;;;;;5.32;2.10;;;;;;;30.79;26.50;96721.06;4937230;28;20106;-34
2022/07/19 13:55:04;;;;;;;4.30;1.88;;;;;;;30.75;26.16;96713.34;4942456;28;20246;-29
2022/07/19 13:57:30;;;;;;;5.50;2.03;;;;;;;30.76;26.14;96717.69;4937975;28;20928;-31
2022/07/19 13:59:55;;;;;;;5.00;2.00;;;;;;;30.75;26.44;96717.81;4942970;28;20160;-33
2022/07/19 14:02:21;;;;;;;3.90;1.70;;;;;;;30.75;26.61;96712.53;4939455;28;20118;-33
2022/07/19 14:04:46;;;;;;;5.68;1.90;;;;;;;30.75;26.67;96709.88;4940232;28;20049;-30
2022/07/19 14:07:11;;;;;;;6.68;1.85;;;;;;;30.72;26.29;96697.72;4941968;28;20037;-30
2022/07/19 14:09:37;;;;;;;6.75;2.08;;;;;;;30.73;26.35;96710.00;4938848;28;20673;-31
2022/07/19 14:12:02;;;;;;;4.55;1.98;;;;;;;30.72;26.65;96708.31;4939487;28;20117;-31
2022/07/19 14:14:28;;;;;;;2.80;1.90;;;;;;;30.72;26.65;96707.47;4938762;28;20465;-28
2022/07/19 14:16:53;;;;;;;4.15;1.73;;;;;;;30.70;26.63;96699.59;4945290;28;20030;-32
2022/07/19 14:19:19;;;;;;;4.80;2.05;;;;;;;30.71;26.57;96698.63;4939044;28;20113;-29
2022/07/19 14:21:44;;;;;;;3.78;1.90;;;;;;;30.71;26.75;96701.28;4940733;28;20161;-34
2022/07/19 14:24:09;;;;;;;2.92;1.90;;;;;;;30.70;26.74;96704.06;4939229;28;22276;-31
2022/07/19 14:26:35;;;;;;;5.85;1.98;;;;;;;30.70;26.54;96696.94;4940071;28;20039;-33
2022/07/19 14:29:01;;;;;;;2.85;1.77;;;;;;;30.69;26.80;96694.41;4934132;28;20042;-27
2022/07/19 14:31:26;;;;;;;5.95;1.60;;;;;;;30.69;26.58;96697.91;4939124;28;20303;-33
2022/07/19 14:33:52;;;;;;;3.00;1.50;;;;;;;30.69;26.62;96697.06;4940470;28;20535;-27
2022/07/19 14:36:17;;;;;;;6.32;2.03;;;;;;;30.67;26.69;96691.91;4940705;28;20117;-34
2022/07/19 14:38:42;;;;;;;2.85;1.85;;;;;;;30.69;26.97;96695.28;4942432;28;21153;-31
2022/07/19 14:41:08;;;;;;;2.38;1.60;;;;;;;30.63;26.95;96677.22;4939740;28;20098;-33
2022/07/19 14:43:33;;;;;;;3.92;1.80;;;;;;;30.68;26.77;96690.94;4945260;28;20978;-30
2022/07/19 14:45:59;;;;;;;2.78;1.90;;;;;;;30.69;26.77;96687.34;4937967;28;20031;-35
2022/07/19 14:48:24;;;;;;;2.47;1.60;;;;;;;30.70;26.98;96690.84;4938099;28;20251;-32
2022/07/19 14:50:50;;;;;;;3.00;1.70;;;;;;;30.68;26.74;96685.66;4941401;28;20213;-29
2022/07/19 14:53:16;;;;;;;3.97;1.95;;;;;;;30.68;26.99;96680.38;4936808;28;20034;-29
2022/07/19 14:55:41;;;;;;;3.17;1.80;;;;;;;30.68;27.00;96671.59;4946937;28;20038;-33
2022/07/19 14:58:06;;;;;;;2.42;1.55;;;;;;;30.68;26.84;96672.44;4943962;28;20034;-29
2022/07/19 15:00:32;;;;;;;3.40;1.40;;;;;;;30.68;26.96;96668.94;4939090;28;20966;-34
2022/07/19 15:02:57;;;;;;;2.47;1.50;;;;;;;30.68;26.93;96674.22;4935078;28;20046;-28
2022/07/19 15:05:23;;;;;;;4.82;1.50;;;;;;;30.67;26.76;96665.47;4939343;28;20034;-32
2022/07/19 15:07:48;;;;;;;3.97;1.40;;;;;;;30.68;26.80;96664.50;4941400;28;20840;-28
2022/07/19 15:10:14;;;;;;;2.53;1.50;;;;;;;30.68;26.89;96659.22;4939199;28;20093;-31
2022/07/19 15:12:39;;;;;;;2.90;1.30;;;;;;;30.69;27.10;96649.47;4944963;28;20045;-28
2022/07/19 15:15:06;;;;;;;2.17;1.27;;;;;;;30.68;26.93;96653.91;4942470;28;20046;-31
2022/07/19 15:17:31;;;;;;;2.10;1.50;;;;;;;30.67;27.21;96640.81;4936602;28;20054;-29
2022/07/19 15:19:57;;;;;;;4.47;1.50;;;;;;;30.69;27.24;96650.31;4935903;28;20148;-32
2022/07/19 15:22:22;;;;;;;3.80;1.63;;;;;;;30.69;27.02;96650.31;4947858;28;20046;-31
2022/07/19 15:24:47;;;;;;;4.13;1.63;;;;;;;30.68;26.89;96637.19;4940004;28;20034;-31
2022/07/19 15:27:13;;;;;;;2.58;1.35;;;;;;;30.68;27.27;96640.69;4947076;28;20496;-32
2022/07/19 15:29:38;;;;;;;2.58;1.60;;;;;;;30.68;27.19;96637.19;4940616;28;20033;-33
2022/07/19 15:32:05;;;;;;;3.20;1.40;;;;;;;30.69;27.32;96634.44;4932499;28;20026;-34
2022/07/19 15:34:30;;;;;;;2.80;1.35;;;;;;;30.69;27.03;96637.09;4943020;28;20500;-33
2022/07/19 15:36:56;;;;;;;2.22;1.50;;;;;;;30.69;26.91;96636.22;4944320;28;21239;-30
2022/07/19 15:39:21;;;;;;;2.92;1.67;;;;;;;30.69;26.79;96644.16;4939070;28;20879;-29
2022/07/19 15:41:46;;;;;;;3.80;1.55;;;;;;;30.69;27.02;96637.09;4940746;28;20078;-31
2022/07/19 15:44:12;;;;;;;1.38;1.27;;;;;;;30.70;27.01;96633.47;4939391;28;20030;-30
2022/07/19 15:46:37;;;;;;;2.72;1.50;;;;;;;30.69;27.29;96631.78;4939619;28;20026;-27
2022/07/19 15:49:03;;;;;;;1.50;1.30;;;;;;;30.69;27.18;96628.28;4939841;28;20641;-29
2022/07/19 15:51:29;;;;;;;1.70;1.40;;;;;;;30.69;27.00;96631.78;4923423;28;20036;-30
2022/07/19 15:53:54;;;;;;;1.30;1.10;;;;;;;30.69;27.29;96626.50;4969464;28;20042;-30
2022/07/19 15:56:20;;;;;;;2.05;1.35;;;;;;;30.71;27.13;96629.03;4938546;28;20137;-32
2022/07/19 15:58:45;;;;;;;3.42;1.52;;;;;;;30.69;27.32;96623.84;4941621;28;20506;-35
2022/07/19 16:01:10;;;;;;;3.03;1.48;;;;;;;30.71;27.08;96621.09;4941166;28;20038;-33
2022/07/19 16:03:36;;;;;;;1.73;1.15;;;;;;;30.70;27.13;96620.25;4925827;28;20031;-30
2022/07/19 16:06:01;;;;;;;2.35;1.55;;;;;;;30.71;27.29;96615.81;4937980;28;20048;-33
2022/07/19 16:08:26;;;;;;;1.67;1.25;;;;;;;30.71;27.27;96613.16;4939939;28;21027;-31
2022/07/19 16:10:52;;;;;;;1.92;1.13;;;;;;;30.71;26.91;96614.00;4944441;28;20037;-34
2022/07/19 16:13:17;;;;;;;2.72;1.30;;;;;;;30.72;27.11;96606.94;4945866;28;20042;-29
2022/07/19 16:15:43;;;;;;;1.95;1.10;;;;;;;30.72;27.25;96610.44;4943292;28;20647;-32
2022/07/19 16:18:08;;;;;;;1.50;1.15;;;;;;;30.72;27.41;96602.50;4943053;28;20109;-27
2022/07/19 16:20:34;;;;;;;1.10;0.95;;;;;;;30.72;27.31;96606.94;4944749;28;20022;-30
2022/07/19 16:22:59;;;;;;;2.35;1.25;;;;;;;30.72;27.21;96607.78;4943342;28;20519;-30
2022/07/19 16:25:25;;;;;;;2.40;1.63;;;;;;;30.73;27.49;96612.13;4953317;28;20030;-29
2022/07/19 16:27:51;;;;;;;1.58;1.30;;;;;;;30.74;27.45;96605.03;4949998;28;20116;-27
2022/07/19 16:30:16;;;;;;;2.45;1.40;;;;;;;30.68;27.19;96584.31;4949135;28;20647;-32
2022/07/19 16:32:42;;;;;;;2.35;1.00;;;;;;;30.73;27.51;96598.91;4950012;28;20038;-33
2022/07/19 16:35:07;;;;;;;1.50;1.10;;;;;;;30.75;27.25;96590.84;4948103;28;20057;-27
2022/07/19 16:37:35;;;;;;;2.22;1.45;;;;;;;30.74;27.33;96592.63;4950034;28;20046;-30
2022/07/19 16:40:04;;;;;;;1.60;1.10;;;;;;;30.75;27.27;96596.97;4953340;28;20034;-30
2022/07/19 16:42:29;;;;;;;1.80;1.02;;;;;;;30.74;27.51;96589.16;4950333;28;20625;-28
2022/07/19 16:44:55;;;;;;;1.27;0.90;;;;;;;30.76;27.25;96592.53;4945898;28;20046;-32
2022/07/19 16:47:20;;;;;;;1.58;1.00;;;;;;;30.75;27.30;96586.38;4952609;28;20029;-30
2022/07/19 16:49:45;;;;;;;1.88;1.10;;;;;;;30.75;27.17;96586.38;4948159;28;20034;-31
2022/07/19 16:52:11;;;;;;;3.03;1.17;;;;;;;30.75;27.59;96590.84;4951935;28;20030;-33
2022/07/19 16:54:37;;;;;;;1.83;1.20;;;;;;;30.77;27.24;96594.19;4949558;28;20030;-28
2022/07/19 16:57:02;;;;;;;1.70;0.93;;;;;;;30.77;27.56;96595.06;4946707;28;20030;-34
2022/07/19 16:59:28;;;;;;;1.00;0.90;;;;;;;30.77;27.58;96584.47;4946471;28;20111;-30
2022/07/19 17:01:53;;;;;;;1.92;0.80;;;;;;;30.77;27.60;96584.47;4953034;28;20023;-35
2022/07/19 17:04:18;;;;;;;1.65;1.00;;;;;;;30.79;27.55;96586.16;4951313;28;20034;-30
2022/07/19 17:06:44;;;;;;;1.77;1.08;;;;;;;30.79;27.24;96591.44;4950020;28;20059;-34
2022/07/19 17:09:10;;;;;;;1.30;1.02;;;;;;;30.80;27.36;96582.53;4950791;28;20506;-35
2022/07/19 17:11:35;;;;;;;1.10;1.00;;;;;;;30.80;27.65;96595.75;4947592;28;20144;-35
2022/07/19 17:14:01;;;;;;;1.48;0.98;;;;;;;30.80;27.46;96585.19;4946243;28;20041;-29
2022/07/19 17:16:26;;;;;;;1.13;0.90;;;;;;;30.80;27.52;96578.09;4977938;28;20030;-33
2022/07/19 17:18:51;;;;;;;2.17;0.88;;;;;;;30.81;27.38;96587.72;4947417;28;20436;-27
2022/07/19 17:21:17;;;;;;;1.52;0.90;;;;;;;30.82;27.48;96580.63;4951218;28;20035;-28
2022/07/19 17:23:43;;;;;;;1.33;0.95;;;;;;;30.82;27.26;96581.44;4948220;28;20034;-34
2022/07/19 17:26:09;;;;;;;1.70;1.38;;;;;;;30.82;27.62;96580.63;4950641;28;20431;-32
2022/07/19 17:28:34;;;;;;;1.85;0.75;;;;;;;30.84;27.63;96583.97;4961228;28;20032;-32
2022/07/19 17:31:00;;;;;;;1.13;1.00;;;;;;;30.82;27.58;96580.63;4950590;28;20026;-27
2022/07/19 17:33:25;;;;;;;1.50;1.10;;;;;;;30.83;27.41;96582.31;4949678;28;20027;-33
2022/07/19 17:35:51;;;;;;;1.48;0.95;;;;;;;30.83;27.54;96584.94;4949158;28;20592;-32
2022/07/19 17:38:16;;;;;;;1.38;1.08;;;;;;;30.84;27.32;96576.06;4949343;28;20117;-32
2022/07/19 17:40:41;;;;;;;2.78;0.90;;;;;;;30.84;27.55;96578.69;4950961;28;20153;-29
2022/07/19 17:43:07;;;;;;;1.35;1.00;;;;;;;30.85;27.50;96590.94;4939002;28;20046;-27
2022/07/19 17:45:32;;;;;;;1.55;0.90;;;;;;;30.85;27.63;96577.72;4930977;28;20290;-29
2022/07/19 17:47:58;;;;;;;3.05;1.00;;;;;;;30.85;27.65;96583.88;4944145;28;20186;-30
2022/07/19 17:50:23;;;;;;;4.47;1.55;;;;;;;30.87;27.57;96581.13;4938038;28;20030;-32
2022/07/19 17:52:49;;;;;;;13.77;1.38;;;;;;;30.88;27.55;96572.22;4938720;28;20133;-31
2022/07/19 17:55:14;;;;;;;1.42;1.17;;;;;;;30.87;27.69;96571.38;4934959;28;20121;-27
2022/07/19 17:57:40;;;;;;;6.32;1.05;;;;;;;30.89;27.73;96571.25;4940068;28;20037;-27
2022/07/19 18:00:06;;;;;;;2.60;1.00;;;;;;;30.89;27.79;96572.09;4933261;28;20037;-28
2022/07/19 18:02:32;;;;;;;2.30;1.17;;;;;;;30.88;27.90;96569.56;4936664;28;20117;-33
2022/07/19 18:04:57;;;;;;;3.65;1.58;;;;;;;30.90;27.72;96575.59;4942051;28;20147;-29
2022/07/19 18:07:22;;;;;;;11.10;1.80;;;;;;;30.92;27.73;96575.44;4939842;28;20049;-31
2022/07/19 18:09:48;;;;;;;9.27;1.60;;;;;;;30.92;27.90;96576.28;4946338;28;20030;-28
2022/07/19 18:12:13;;;;;;;9.43;1.73;;;;;;;30.88;27.69;96569.56;4932060;28;20403;-25
2022/07/19 18:14:39;;;;;;;9.57;1.48;;;;;;;30.94;28.03;96579.69;4937713;28;20041;-28
2022/07/19 18:17:04;;;;;;;10.82;1.77;;;;;;;30.94;28.18;96579.69;4935962;28;20049;-26
2022/07/19 18:19:30;;;;;;;4.63;1.50;;;;;;;30.89;28.22;96566.81;4941981;28;20030;-26
2022/07/19 18:21:55;;;;;;;6.30;1.92;;;;;;;30.95;28.40;96576.06;4936792;28;20030;-32
2022/07/19 18:24:21;;;;;;;9.57;2.10;;;;;;;30.96;28.19;96583.03;4935399;28;20157;-33
2022/07/19 18:26:46;;;;;;;6.30;1.90;;;;;;;30.95;28.39;96581.38;4944335;28;21283;-26
2022/07/19 18:29:12;;;;;;;4.05;1.45;;;;;;;30.97;28.05;96584.72;4940436;28;20039;-26
2022/07/19 18:31:37;;;;;;;8.90;1.88;;;;;;;30.98;28.48;96580.28;4938560;28;20029;-33
2022/07/19 18:34:03;;;;;;;8.38;1.65;;;;;;;30.97;28.12;96582.06;4935247;28;20267;-26
2022/07/19 18:36:29;;;;;;;8.95;2.22;;;;;;;30.98;28.21;96586.41;4929973;28;20436;-31
2022/07/19 18:38:55;;;;;;;10.93;2.53;;;;;;;30.98;28.54;96580.28;4930021;28;20061;-30
2022/07/19 18:41:20;;;;;;;9.32;2.75;;;;;;;31.01;28.12;96591.44;4925857;28;20788;-31
2022/07/19 18:43:46;;;;;;;10.02;2.30;;;;;;;31.01;28.21;96586.16;4930475;28;20098;-28
2022/07/19 18:46:12;;;;;;;17.17;3.50;;;;;;;31.00;28.52;96584.47;4932442;28;20694;-29
2022/07/19 18:48:38;;;;;;;7.13;2.40;;;;;;;31.02;28.31;96587.84;4921505;28;20034;-31
2022/07/19 18:51:04;;;;;;;5.22;2.28;;;;;;;31.05;28.52;96596.50;4926068;28;20070;-27
2022/07/19 18:53:31;;;;;;;9.93;3.08;;;;;;;31.03;28.35;96594.84;4926551;28;20062;-28
2022/07/19 18:55:57;;;;;;;15.60;3.90;;;;;;;31.06;28.05;96595.53;4939669;28;20037;-25
2022/07/19 18:58:22;;;;;;;9.43;3.63;;;;;;;31.05;27.82;96596.50;4938236;28;20038;-29
2022/07/19 19:00:48;;;;;;;13.75;4.03;;;;;;;31.07;27.89;96594.56;4943761;28;20380;-28
2022/07/19 19:03:13;;;;;;;12.63;4.40;;;;;;;31.08;27.37;96596.28;4945012;28;20030;-26
2022/07/19 19:05:39;;;;;;;13.15;3.95;;;;;;;31.08;27.33;96591.00;4950829;28;20902;-26
2022/07/19 19:08:05;;;;;;;10.05;3.60;;;;;;;31.08;27.27;96591.81;4925093;28;20070;-31
2022/07/19 19:10:32;;;;;;;7.32;3.83;;;;;;;31.08;27.27;96596.28;4932760;28;20026;-25
2022/07/19 19:12:57;;;;;;;9.57;3.70;;;;;;;31.10;26.85;96594.34;4934289;28;20034;-29
2022/07/19 19:15:23;;;;;;;10.32;3.90;;;;;;;31.11;26.76;96601.31;4936059;28;20165;-25
2022/07/19 19:17:48;;;;;;;9.75;4.05;;;;;;;31.10;26.50;96594.34;4941284;28;20034;-29
2022/07/19 19:20:14;;;;;;;10.93;3.90;;;;;;;31.11;26.39;96601.31;4935091;28;20026;-26
2022/07/19 19:22:39;;;;;;;8.52;3.67;;;;;;;31.11;26.03;96596.03;4942578;28;20088;-29
2022/07/19 19:25:05;;;;;;;14.35;4.22;;;;;;;31.12;26.19;96600.38;4935164;28;20073;-25
2022/07/19 19:27:31;;;;;;;7.63;3.88;;;;;;;31.11;26.05;96610.09;4943450;28;20145;-33
2022/07/19 19:29:56;;;;;;;10.68;4.00;;;;;;;31.11;26.18;96611.91;4942631;28;20096;-25
2022/07/19 19:32:22;;;;;;;9.15;4.47;;;;;;;31.11;25.93;96617.19;4935043;28;20026;-26
2022/07/19 19:34:47;;;;;;;13.82;4.40;;;;;;;31.11;25.69;96609.25;4935611;28;20034;-29
2022/07/19 19:37:13;;;;;;;8.93;4.10;;;;;;;31.10;25.80;96610.22;4944312;28;20077;-26
2022/07/19 19:39:38;;;;;;;9.52;4.10;;;;;;;31.11;25.49;96611.91;4939894;28;20108;-32
2022/07/19 19:42:05;;;;;;;12.52;4.72;;;;;;;31.11;25.22;96618.06;4942771;28;20639;-25
2022/07/19 19:44:30;;;;;;;7.78;4.30;;;;;;;31.11;25.25;96623.34;4937805;28;20875;-26
2022/07/19 19:46:56;;;;;;;13.13;4.47;;;;;;;31.11;25.18;96622.50;4944169;28;20121;-24
2022/07/19 19:49:21;;;;;;;12.60;4.25;;;;;;;31.11;25.37;96620.69;4938429;28;20033;-28
2022/07/19 19:51:47;;;;;;;6.68;3.75;;;;;;;31.11;25.07;96623.34;4940403;28;20081;-25
2022/07/19 19:54:12;;;;;;;11.73;4.70;;;;;;;31.10;24.44;96624.31;4938988;28;20042;-27
2022/07/19 19:56:37;;;;;;;13.52;4.60;;;;;;;31.10;24.24;96626.97;4912575;28;21266;-29
2022/07/19 19:59:03;;;;;;;7.90;4.30;;;;;;;31.12;24.21;96626.84;4940448;28;20026;-27
2022/07/19 20:01:29;;;;;;;11.35;4.75;;;;;;;31.10;24.20;96626.97;4939904;28;20061;-27
2022/07/19 20:03:54;;;;;;;10.93;4.80;;;;;;;31.10;24.20;96621.66;4942329;28;20060;-29
2022/07/19 20:06:19;;;;;;;14.65;4.95;;;;;;;31.11;24.34;96627.78;4949035;28;20022;-27
2022/07/19 20:08:45;;;;;;;10.20;5.10;;;;;;;31.11;24.09;96627.78;4961929;28;20030;-23
2022/07/19 20:11:10;;;;;;;11.95;4.55;;;;;;;31.11;24.44;96622.50;4962571;28;20203;-28
2022/07/19 20:13:36;;;;;;;11.85;5.00;;;;;;;31.11;24.14;96627.78;4958380;28;20061;-30
2022/07/19 20:16:01;;;;;;;10.45;4.97;;;;;;;31.09;24.00;96629.72;4957819;28;20565;-26
2022/07/19 20:18:26;;;;;;;12.50;5.13;;;;;;;31.08;24.53;96628.03;4958126;28;20029;-27
2022/07/19 20:20:52;;;;;;;12.10;5.63;;;;;;;31.08;24.02;96628.03;4963045;28;20041;-28
2022/07/19 20:23:18;;;;;;;10.57;4.80;;;;;;;31.07;24.32;96636.91;4962465;28;20034;-28
2022/07/19 20:25:43;;;;;;;8.98;5.22;;;;;;;31.05;24.21;96639.72;4952862;28;20149;-26
2022/07/19 20:28:09;;;;;;;9.30;5.13;;;;;;;31.03;24.37;96637.19;4958351;28;21050;-26
2022/07/19 20:30:35;;;;;;;11.52;5.30;;;;;;;31.04;24.10;96632.72;4957818;28;20034;-26
2022/07/19 20:33:00;;;;;;;11.65;5.50;;;;;;;31.02;24.16;96635.47;4947436;28;20156;-27
2022/07/19 20:35:26;;;;;;;12.40;5.63;;;;;;;31.02;24.42;96640.75;4961330;28;20041;-27
2022/07/19 20:37:52;;;;;;;10.20;5.68;;;;;;;31.02;24.47;96642.59;4952687;28;20033;-24
2022/07/19 20:40:17;;;;;;;9.80;5.20;;;;;;;31.00;24.46;96639.19;4946277;28;20029;-27
2022/07/19 20:42:43;;;;;;;11.80;5.50;;;;;;;30.98;24.53;96639.34;4959183;28;20022;-33
2022/07/19 20:45:09;;;;;;;11.45;5.10;;;;;;;30.98;24.39;96638.50;4950418;28;20038;-28
2022/07/19 20:47:35;;;;;;;9.77;5.10;;;;;;;30.96;24.26;96646.53;4947932;28;20156;-27
2022/07/19 20:50:00;;;;;;;8.82;4.97;;;;;;;30.95;24.64;96644.88;4967346;28;20139;-26
2022/07/19 20:52:26;;;;;;;10.23;5.60;;;;;;;30.94;24.77;96648.47;4954340;28;21153;-30
2022/07/19 20:54:51;;;;;;;15.65;5.50;;;;;;;30.93;24.77;96654.72;4960292;28;20037;-27
2022/07/19 20:57:17;;;;;;;8.68;5.10;;;;;;;30.92;24.75;96655.69;4964987;28;20080;-26
2022/07/19 20:59:42;;;;;;;9.60;4.88;;;;;;;30.90;24.76;96657.59;4955202;28;20129;-25
2022/07/19 21:02:08;;;;;;;7.47;5.00;;;;;;;30.88;24.81;96656.88;4948885;28;21722;-27
2022/07/19 21:04:33;;;;;;;10.68;4.75;;;;;;;30.87;24.87;96657.84;4955704;28;20050;-27
2022/07/19 21:06:59;;;;;;;7.55;4.75;;;;;;;30.84;24.58;96658.91;4955036;28;20172;-31
2022/07/19 21:09:24;;;;;;;10.68;5.30;;;;;;;30.84;24.79;96658.91;4954284;28;20128;-26
2022/07/19 21:11:49;;;;;;;8.60;4.72;;;;;;;30.82;24.92;96658.16;4956146;28;20975;-32
2022/07/19 21:14:15;;;;;;;9.35;4.78;;;;;;;30.81;24.58;96663.59;4952017;28;20065;-29
2022/07/19 21:16:41;;;;;;;15.27;4.90;;;;;;;30.80;24.93;96672.47;4961015;28;20038;-30
2022/07/19 21:19:06;;;;;;;9.02;4.70;;;;;;;30.77;24.82;96669.13;4956290;28;20065;-30
2022/07/19 21:21:32;;;;;;;13.85;5.47;;;;;;;30.74;25.01;96674.63;4957958;28;20096;-27
2022/07/19 21:23:57;;;;;;;8.40;4.82;;;;;;;30.73;24.66;96670.31;4960325;28;20045;-31
2022/07/19 21:26:22;;;;;;;7.82;5.07;;;;;;;30.71;24.91;96677.47;4958780;28;20514;-28
2022/07/19 21:28:48;;;;;;;8.07;4.70;;;;;;;30.68;25.28;96680.38;4958077;28;20661;-27
2022/07/19 21:31:13;;;;;;;10.38;4.78;;;;;;;30.68;25.01;96679.50;4954508;28;20034;-30
2022/07/19 21:33:59;;;;;;;11.75;5.07;;;;;;;30.64;25.15;96673.63;4964242;28;20026;-27
2022/07/19 21:36:24;;;;;;;13.05;4.95;;;;;;;30.60;25.40;96670.38;4960041;28;20041;-24
2022/07/19 21:38:49;;;;;;;14.52;4.88;;;;;;;30.57;25.43;96672.38;4943894;28;20034;-25
2022/07/19 21:41:15;;;;;;;9.90;4.60;;;;;;;30.55;25.45;96671.69;4969924;28;20151;-26
2022/07/19 21:43:42;;;;;;;9.00;4.45;;;;;;;30.51;25.54;96673.69;4958602;28;20030;-26
2022/07/19 21:46:07;;;;;;;12.82;5.22;;;;;;;30.47;25.58;96673.06;4962952;28;20851;-29
2022/07/19 21:48:32;;;;;;;10.00;5.35;;;;;;;30.45;25.43;96680.28;4967501;28;20837;-29
2022/07/19 21:50:58;;;;;;;8.60;4.82;;;;;;;30.42;25.57;96677.88;4963683;28;20543;-31
2022/07/19 21:53:23;;;;;;;12.32;5.32;;;;;;;30.38;25.73;96674.63;4953470;28;20026;-27
2022/07/19 21:55:49;;;;;;;14.95;5.40;;;;;;;30.36;25.46;96681.81;4967190;28;20874;-28
2022/07/19 21:58:14;;;;;;;12.07;5.10;;;;;;;30.35;25.70;96684.56;4958202;28;20029;-32
2022/07/19 22:00:39;;;;;;;12.35;5.43;;;;;;;30.32;25.47;96684.81;4967544;28;20018;-26
2022/07/19 22:03:05;;;;;;;11.95;4.85;;;;;;;30.30;25.69;96686.69;4962896;28;20494;-27